메인 페이지
METAR-TAF:

METAR-TAF

공항 :

제네바 국제공항

제네바, 스위스

위도: 46-15N, 경도: 006-08E, 고도: 420m

현재 날씨관측

예보는 6분 전, 02:50시(UTC)에 발표되었습니다.
여러 방향의 바람 1kt
온도 0°C
습도 86%
기압 1023 hPa
시정 10km 이상
1500m 미만 상공 구름 및 적란운 없음

METAR: LSGG 190250Z AUTO VRB01KT CAVOK M00/M02 Q1023 NOSIG

시각: 03:56 (02:56 UTC)

예보

예보는 31분 전, 02:25시(UTC)에 발표되었습니다.
예보 대상 시간: 19일 03시부터 20일 09시까지 (UTC)
여러 방향의 바람 3kt
시정 10km 이상
1500m 미만 상공 구름 및 적란운 없음
전환 중
19일 08시부터 19일 10시까지 (UTC)
북동12kt
시정 10km 이상
고도 4000ft 상공 구름 조금
전환 중
19일 18시부터 19일 21시까지 (UTC)
북동15kt, 순간 최대 풍속 30kt
시정 10km 이상
1500m 미만 상공 구름 및 적란운 없음

TAF: LSGG 190225Z 1903/2009 VRB03KT CAVOK TX10/1915Z TNM01/1906Z TN02/2006Z BECMG 1908/1910 05012KT 9999 FEW040 BECMG 1918/1921 05015G30KT CAVOK

4,000개 이상의 공항 관측 자료 및 예보 (METAR 및 TAF 보고).

지도상에서 검색 가능한 기상관측소가 노란 점과 빨간 점으로 표시되어 있습니다.

기상관측소 명을 보려면 표시 위로 마우스를 이동하세요.

날씨 관측과 예보를 보려면 클릭하세요.

지도 변경 : 확대하려면 엑스 표시가 있는 녹색 버튼, 축소하려면 빼기 표시가 있는 녹색 버튼, 다음 페이지의 지도를 보려면 녹색 화살표를 클릭하세요.


METAR-TAF: